sensor_id;sensor_type;location;lat;lon;timestamp;pressure;altitude;pressure_sealevel;temperature;humidity
73748;BME280;62056;52.130;5.428;2022-12-07T00:01:35;102083.63;;;3.83;80.18
73748;BME280;62056;52.130;5.428;2022-12-07T00:04:06;102079.56;;;3.81;84.33
73748;BME280;62056;52.130;5.428;2022-12-07T00:06:39;102079.81;;;3.79;83.13
73748;BME280;62056;52.130;5.428;2022-12-07T00:09:09;102080.81;;;3.78;82.56
73748;BME280;62056;52.130;5.428;2022-12-07T00:11:36;102081.84;;;3.77;83.03
73748;BME280;62056;52.130;5.428;2022-12-07T00:14:07;102078.81;;;3.74;82.00
73748;BME280;62056;52.130;5.428;2022-12-07T00:16:34;102076.38;;;3.72;82.02
73748;BME280;62056;52.130;5.428;2022-12-07T00:19:02;102076.59;;;3.71;83.14
73748;BME280;62056;52.130;5.428;2022-12-07T00:21:34;102077.41;;;3.64;81.19
73748;BME280;62056;52.130;5.428;2022-12-07T00:24:03;102068.94;;;3.62;80.45
73748;BME280;62056;52.130;5.428;2022-12-07T00:26:36;102072.78;;;3.60;83.18
73748;BME280;62056;52.130;5.428;2022-12-07T00:29:18;102067.97;;;3.57;81.40
73748;BME280;62056;52.130;5.428;2022-12-07T00:31:45;102062.09;;;3.55;81.39
73748;BME280;62056;52.130;5.428;2022-12-07T00:34:15;102061.31;;;3.54;82.28
73748;BME280;62056;52.130;5.428;2022-12-07T00:36:42;102054.63;;;3.52;80.51
73748;BME280;62056;52.130;5.428;2022-12-07T00:39:08;102062.31;;;3.53;80.59
73748;BME280;62056;52.130;5.428;2022-12-07T00:41:35;102054.41;;;3.53;80.36
73748;BME280;62056;52.130;5.428;2022-12-07T00:44:02;102051.59;;;3.55;81.21
73748;BME280;62056;52.130;5.428;2022-12-07T00:46:29;102051.59;;;3.55;80.95
73748;BME280;62056;52.130;5.428;2022-12-07T00:48:56;102046.13;;;3.56;80.93
73748;BME280;62056;52.130;5.428;2022-12-07T00:51:24;102048.75;;;3.56;80.94
73748;BME280;62056;52.130;5.428;2022-12-07T00:53:52;102047.91;;;3.56;80.95
73748;BME280;62056;52.130;5.428;2022-12-07T00:56:21;102042.28;;;3.52;80.38
73748;BME280;62056;52.130;5.428;2022-12-07T00:58:55;102048.56;;;3.51;81.68
73748;BME280;62056;52.130;5.428;2022-12-07T01:01:23;102042.69;;;3.49;82.80
73748;BME280;62056;52.130;5.428;2022-12-07T01:03:51;102044.72;;;3.47;82.72
73748;BME280;62056;52.130;5.428;2022-12-07T01:06:19;102036.03;;;3.47;82.83
73748;BME280;62056;52.130;5.428;2022-12-07T01:08:46;102037.03;;;3.45;81.85
73748;BME280;62056;52.130;5.428;2022-12-07T01:11:16;102040.50;;;3.46;81.43
73748;BME280;62056;52.130;5.428;2022-12-07T01:13:43;102043.94;;;3.47;82.50
73748;BME280;62056;52.130;5.428;2022-12-07T01:16:13;102044.72;;;3.47;81.77
73748;BME280;62056;52.130;5.428;2022-12-07T01:18:40;102042.91;;;3.48;82.62
73748;BME280;62056;52.130;5.428;2022-12-07T01:21:11;102051.63;;;3.48;83.68
73748;BME280;62056;52.130;5.428;2022-12-07T01:23:38;102043.72;;;3.48;82.54
73748;BME280;62056;52.130;5.428;2022-12-07T01:26:10;102041.09;;;3.48;82.37
73748;BME280;62056;52.130;5.428;2022-12-07T01:28:38;102053.41;;;3.48;82.18
73748;BME280;62056;52.130;5.428;2022-12-07T01:31:08;102047.34;;;3.47;82.56
73748;BME280;62056;52.130;5.428;2022-12-07T01:33:38;102051.03;;;3.46;82.38
73748;BME280;62056;52.130;5.428;2022-12-07T01:36:22;102048.59;;;3.44;82.28
73748;BME280;62056;52.130;5.428;2022-12-07T01:38:51;102048.59;;;3.44;83.01
73748;BME280;62056;52.130;5.428;2022-12-07T01:41:20;102045.34;;;3.42;83.40
73748;BME280;62056;52.130;5.428;2022-12-07T01:44:10;102046.00;;;3.38;82.77
73748;BME280;62056;52.130;5.428;2022-12-07T01:46:37;102044.16;;;3.38;83.61
73748;BME280;62056;52.130;5.428;2022-12-07T01:49:06;102045.38;;;3.36;83.72
73748;BME280;62056;52.130;5.428;2022-12-07T01:51:37;102043.75;;;3.35;83.46
73748;BME280;62056;52.130;5.428;2022-12-07T01:54:07;102049.22;;;3.33;84.50
73748;BME280;62056;52.130;5.428;2022-12-07T01:56:34;102046.81;;;3.32;84.18
73748;BME280;62056;52.130;5.428;2022-12-07T01:59:01;102048.84;;;3.30;83.47
73748;BME280;62056;52.130;5.428;2022-12-07T02:01:30;102047.22;;;3.29;83.08
73748;BME280;62056;52.130;5.428;2022-12-07T02:03:57;102053.50;;;3.28;84.02
73748;BME280;62056;52.130;5.428;2022-12-07T02:06:25;102049.25;;;3.27;83.18
73748;BME280;62056;52.130;5.428;2022-12-07T02:08:52;102056.13;;;3.28;84.29
73748;BME280;62056;52.130;5.428;2022-12-07T02:11:19;102051.69;;;3.28;85.58
73748;BME280;62056;52.130;5.428;2022-12-07T02:13:47;102048.25;;;3.28;85.98
73748;BME280;62056;52.130;5.428;2022-12-07T02:16:52;102043.19;;;3.26;84.04
73748;BME280;62056;52.130;5.428;2022-12-07T02:22:01;102039.56;;;3.27;83.29
73748;BME280;62056;52.130;5.428;2022-12-07T02:35:15;102035.91;;;3.28;84.49
73748;BME280;62056;52.130;5.428;2022-12-07T02:38:01;102035.69;;;3.30;84.59
73748;BME280;62056;52.130;5.428;2022-12-07T02:40:36;102039.72;;;3.32;85.41
73748;BME280;62056;52.130;5.428;2022-12-07T02:43:10;102031.84;;;3.32;84.36
73748;BME280;62056;52.130;5.428;2022-12-07T02:45:40;102031.84;;;3.32;84.10
73748;BME280;62056;52.130;5.428;2022-12-07T02:48:10;102031.84;;;3.32;84.06
73748;BME280;62056;52.130;5.428;2022-12-07T02:50:38;102027.38;;;3.33;84.43
73748;BME280;62056;52.130;5.428;2022-12-07T02:53:04;102030.63;;;3.35;84.41
73748;BME280;62056;52.130;5.428;2022-12-07T02:55:37;102030.41;;;3.36;84.61
73748;BME280;62056;52.130;5.428;2022-12-07T02:58:16;102040.72;;;3.38;84.81
73748;BME280;62056;52.130;5.428;2022-12-07T03:00:56;102032.41;;;3.41;85.22
73748;BME280;62056;52.130;5.428;2022-12-07T03:03:27;102040.91;;;3.43;84.59
73748;BME280;62056;52.130;5.428;2022-12-07T03:06:19;102034.03;;;3.42;84.74
73748;BME280;62056;52.130;5.428;2022-12-07T03:08:56;102042.94;;;3.41;84.29
73748;BME280;62056;52.130;5.428;2022-12-07T03:11:29;102041.09;;;3.41;84.52
73748;BME280;62056;52.130;5.428;2022-12-07T03:14:04;102039.31;;;3.42;85.38
73748;BME280;62056;52.130;5.428;2022-12-07T03:16:39;102038.28;;;3.43;84.95
73748;BME280;62056;52.130;5.428;2022-12-07T03:19:15;102025.72;;;3.45;85.54
73748;BME280;62056;52.130;5.428;2022-12-07T03:21:47;102025.53;;;3.47;85.47
73748;BME280;62056;52.130;5.428;2022-12-07T03:24:19;102028.16;;;3.47;84.97
73748;BME280;62056;52.130;5.428;2022-12-07T03:27:03;102030.78;;;3.47;85.06
73748;BME280;62056;52.130;5.428;2022-12-07T03:29:36;102024.72;;;3.46;84.93
73748;BME280;62056;52.130;5.428;2022-12-07T03:32:10;102024.13;;;3.44;85.03
73748;BME280;62056;52.130;5.428;2022-12-07T03:34:53;102022.50;;;3.43;85.73
73748;BME280;62056;52.130;5.428;2022-12-07T03:37:31;102027.75;;;3.43;85.61
73748;BME280;62056;52.130;5.428;2022-12-07T03:43:00;102018.66;;;3.39;85.03
73748;BME280;62056;52.130;5.428;2022-12-07T03:45:39;102012.81;;;3.37;85.17
73748;BME280;62056;52.130;5.428;2022-12-07T03:53:22;102008.56;;;3.29;84.87
73748;BME280;62056;52.130;5.428;2022-12-07T03:55:52;102013.84;;;3.29;84.97
73748;BME280;62056;52.130;5.428;2022-12-07T03:58:21;102013.84;;;3.29;84.87
73748;BME280;62056;52.130;5.428;2022-12-07T04:00:50;102021.97;;;3.28;84.78
73748;BME280;62056;52.130;5.428;2022-12-07T04:03:17;102017.69;;;3.27;84.97
73748;BME280;62056;52.130;5.428;2022-12-07T04:05:44;102017.94;;;3.25;84.80
73748;BME280;62056;52.130;5.428;2022-12-07T04:08:11;102015.50;;;3.23;84.95
73748;BME280;62056;52.130;5.428;2022-12-07T04:10:37;102012.88;;;3.23;85.22
73748;BME280;62056;52.130;5.428;2022-12-07T04:13:04;101999.72;;;3.23;85.27
73748;BME280;62056;52.130;5.428;2022-12-07T04:15:31;102001.31;;;3.24;85.75
73748;BME280;62056;52.130;5.428;2022-12-07T04:17:57;102005.38;;;3.27;85.70
73748;BME280;62056;52.130;5.428;2022-12-07T04:20:24;102000.13;;;3.27;85.34
73748;BME280;62056;52.130;5.428;2022-12-07T04:22:51;101998.28;;;3.28;85.71
73748;BME280;62056;52.130;5.428;2022-12-07T04:25:17;101998.06;;;3.29;85.65
73748;BME280;62056;52.130;5.428;2022-12-07T04:27:44;102002.31;;;3.30;85.45
73748;BME280;62056;52.130;5.428;2022-12-07T04:30:11;102003.31;;;3.29;85.59
73748;BME280;62056;52.130;5.428;2022-12-07T04:32:38;102004.16;;;3.30;85.62
73748;BME280;62056;52.130;5.428;2022-12-07T04:35:05;102010.22;;;3.30;85.06
73748;BME280;62056;52.130;5.428;2022-12-07T04:37:32;102010.63;;;3.27;85.04
73748;BME280;62056;52.130;5.428;2022-12-07T04:39:59;102004.78;;;3.25;85.02
73748;BME280;62056;52.130;5.428;2022-12-07T04:42:27;101997.91;;;3.24;85.32
73748;BME280;62056;52.130;5.428;2022-12-07T04:44:54;101999.94;;;3.22;84.70
73748;BME280;62056;52.130;5.428;2022-12-07T04:47:21;102009.66;;;3.21;84.67
73748;BME280;62056;52.130;5.428;2022-12-07T04:49:47;102004.38;;;3.21;84.75
73748;BME280;62056;52.130;5.428;2022-12-07T04:52:14;102004.38;;;3.21;85.01
73748;BME280;62056;52.130;5.428;2022-12-07T04:54:41;101996.50;;;3.21;84.96
73748;BME280;62056;52.130;5.428;2022-12-07T04:57:07;101998.09;;;3.22;84.88
73748;BME280;62056;52.130;5.428;2022-12-07T04:59:34;102004.19;;;3.23;85.29
73748;BME280;62056;52.130;5.428;2022-12-07T05:02:04;101995.47;;;3.22;85.00
73748;BME280;62056;52.130;5.428;2022-12-07T05:04:31;101995.28;;;3.24;84.91
73748;BME280;62056;52.130;5.428;2022-12-07T05:06:57;101992.63;;;3.24;85.25
73748;BME280;62056;52.130;5.428;2022-12-07T05:09:23;101986.56;;;3.23;85.32
73748;BME280;62056;52.130;5.428;2022-12-07T05:11:50;101984.16;;;3.22;85.20
73748;BME280;62056;52.130;5.428;2022-12-07T05:14:19;101980.13;;;3.19;85.32
73748;BME280;62056;52.130;5.428;2022-12-07T05:16:51;101986.38;;;3.18;85.28
73748;BME280;62056;52.130;5.428;2022-12-07T05:19:19;101986.81;;;3.15;85.33
73748;BME280;62056;52.130;5.428;2022-12-07T05:21:46;101989.84;;;3.12;85.17
73748;BME280;62056;52.130;5.428;2022-12-07T05:24:15;101983.97;;;3.10;84.64
73748;BME280;62056;52.130;5.428;2022-12-07T05:26:43;101983.38;;;3.08;85.41
73748;BME280;62056;52.130;5.428;2022-12-07T05:29:14;101981.97;;;3.06;85.25
73748;BME280;62056;52.130;5.428;2022-12-07T05:31:42;101979.78;;;3.02;84.98
73748;BME280;62056;52.130;5.428;2022-12-07T05:34:09;101988.66;;;3.01;84.76
73748;BME280;62056;52.130;5.428;2022-12-07T05:36:36;101989.09;;;2.98;85.14
73748;BME280;62056;52.130;5.428;2022-12-07T05:39:03;101990.09;;;2.97;84.99
73748;BME280;62056;52.130;5.428;2022-12-07T05:41:30;101986.06;;;2.95;84.47
73748;BME280;62056;52.130;5.428;2022-12-07T05:44:15;101981.84;;;2.94;84.98
73748;BME280;62056;52.130;5.428;2022-12-07T05:46:42;101995.19;;;2.92;84.74
73748;BME280;62056;52.130;5.428;2022-12-07T05:49:09;101995.38;;;2.91;84.71
73748;BME280;62056;52.130;5.428;2022-12-07T05:51:37;101992.94;;;2.89;85.13
73748;BME280;62056;52.130;5.428;2022-12-07T05:54:03;101989.53;;;2.89;85.31
73748;BME280;62056;52.130;5.428;2022-12-07T05:56:30;101987.91;;;2.88;85.15
73748;BME280;62056;52.130;5.428;2022-12-07T05:58:57;101985.50;;;2.86;85.25
73748;BME280;62056;52.130;5.428;2022-12-07T06:01:42;101987.31;;;2.86;85.10
73748;BME280;62056;52.130;5.428;2022-12-07T06:04:11;101992.56;;;2.86;86.24
73748;BME280;62056;52.130;5.428;2022-12-07T06:06:37;101991.75;;;2.85;86.03
73748;BME280;62056;52.130;5.428;2022-12-07T06:09:04;101987.31;;;2.86;86.21
73748;BME280;62056;52.130;5.428;2022-12-07T06:11:31;101985.69;;;2.84;86.60
73748;BME280;62056;52.130;5.428;2022-12-07T06:14:16;101985.88;;;2.83;86.25
73748;BME280;62056;52.130;5.428;2022-12-07T06:16:43;101994.00;;;2.81;85.81
73748;BME280;62056;52.130;5.428;2022-12-07T06:19:10;101991.38;;;2.81;85.85
73748;BME280;62056;52.130;5.428;2022-12-07T06:21:36;101997.63;;;2.80;85.32
73748;BME280;62056;52.130;5.428;2022-12-07T06:24:03;101997.03;;;2.78;85.07
73748;BME280;62056;52.130;5.428;2022-12-07T06:26:30;101997.03;;;2.78;85.35
73748;BME280;62056;52.130;5.428;2022-12-07T06:28:57;101992.56;;;2.79;85.38
73748;BME280;62056;52.130;5.428;2022-12-07T06:31:24;102001.06;;;2.81;85.37
73748;BME280;62056;52.130;5.428;2022-12-07T06:33:50;101994.19;;;2.80;85.18
73748;BME280;62056;52.130;5.428;2022-12-07T06:36:17;101994.19;;;2.80;85.60
73748;BME280;62056;52.130;5.428;2022-12-07T06:38:52;101992.38;;;2.80;85.34
73748;BME280;62056;52.130;5.428;2022-12-07T06:41:20;102001.28;;;2.79;85.10
73748;BME280;62056;52.130;5.428;2022-12-07T06:43:47;102002.28;;;2.78;85.14
73748;BME280;62056;52.130;5.428;2022-12-07T06:46:21;102002.28;;;2.78;85.03
73748;BME280;62056;52.130;5.428;2022-12-07T06:48:48;102002.28;;;2.78;85.26
73748;BME280;62056;52.130;5.428;2022-12-07T06:51:16;101996.22;;;2.78;85.28
73748;BME280;62056;52.130;5.428;2022-12-07T06:53:42;102001.47;;;2.78;85.53
73748;BME280;62056;52.130;5.428;2022-12-07T06:56:12;101997.44;;;2.75;84.90
73748;BME280;62056;52.130;5.428;2022-12-07T06:58:41;102004.72;;;2.73;85.11
73748;BME280;62056;52.130;5.428;2022-12-07T07:01:16;102005.91;;;2.71;85.23
73748;BME280;62056;52.130;5.428;2022-12-07T07:03:45;101996.63;;;2.68;85.19
73748;BME280;62056;52.130;5.428;2022-12-07T07:06:13;102001.28;;;2.66;85.11
73748;BME280;62056;52.130;5.428;2022-12-07T07:08:40;102001.72;;;2.63;85.19
73748;BME280;62056;52.130;5.428;2022-12-07T07:11:07;102000.31;;;2.60;85.25
73748;BME280;62056;52.130;5.428;2022-12-07T07:13:34;101992.81;;;2.57;85.38
73748;BME280;62056;52.130;5.428;2022-12-07T07:16:01;101993.00;;;2.56;85.58
73748;BME280;62056;52.130;5.428;2022-12-07T07:18:28;101995.03;;;2.54;85.56
73748;BME280;62056;52.130;5.428;2022-12-07T07:20:55;101996.25;;;2.51;85.25
73748;BME280;62056;52.130;5.428;2022-12-07T07:23:22;102003.53;;;2.49;85.11
73748;BME280;62056;52.130;5.428;2022-12-07T07:25:48;101998.47;;;2.48;85.79
73748;BME280;62056;52.130;5.428;2022-12-07T07:28:15;101997.66;;;2.47;85.91
73748;BME280;62056;52.130;5.428;2022-12-07T07:30:42;101993.63;;;2.45;85.02
73748;BME280;62056;52.130;5.428;2022-12-07T07:33:09;102006.78;;;2.45;85.69
73748;BME280;62056;52.130;5.428;2022-12-07T07:35:36;101995.84;;;2.48;86.25
73748;BME280;62056;52.130;5.428;2022-12-07T07:38:03;101993.63;;;2.51;86.56
73748;BME280;62056;52.130;5.428;2022-12-07T07:40:30;102000.09;;;2.55;87.04
73748;BME280;62056;52.130;5.428;2022-12-07T07:42:57;101995.25;;;2.59;87.39
73748;BME280;62056;52.130;5.428;2022-12-07T07:45:26;101995.44;;;2.64;86.96
73748;BME280;62056;52.130;5.428;2022-12-07T07:47:56;102005.31;;;2.69;86.87
73748;BME280;62056;52.130;5.428;2022-12-07T07:50:22;102007.94;;;2.75;87.51
73748;BME280;62056;52.130;5.428;2022-12-07T07:52:50;101995.78;;;2.81;87.65
73748;BME280;62056;52.130;5.428;2022-12-07T07:55:17;102001.06;;;2.88;87.87
73748;BME280;62056;52.130;5.428;2022-12-07T07:57:44;102005.50;;;2.94;88.31
73748;BME280;62056;52.130;5.428;2022-12-07T08:00:19;101996.75;;;3.00;88.33
73748;BME280;62056;52.130;5.428;2022-12-07T08:02:46;102013.53;;;3.06;88.43
73748;BME280;62056;52.130;5.428;2022-12-07T08:05:13;102011.91;;;3.11;88.15
73748;BME280;62056;52.130;5.428;2022-12-07T08:07:40;102015.31;;;3.18;88.72
73748;BME280;62056;52.130;5.428;2022-12-07T08:10:10;102007.81;;;3.22;88.60
73748;BME280;62056;52.130;5.428;2022-12-07T08:12:42;102004.34;;;3.28;88.25
73748;BME280;62056;52.130;5.428;2022-12-07T08:15:33;102011.41;;;3.34;88.58
73748;BME280;62056;52.130;5.428;2022-12-07T08:18:04;102013.41;;;3.39;88.08
73748;BME280;62056;52.130;5.428;2022-12-07T08:20:31;102015.19;;;3.45;88.50
73748;BME280;62056;52.130;5.428;2022-12-07T08:22:59;102016.19;;;3.51;89.42
73748;BME280;62056;52.130;5.428;2022-12-07T08:25:27;102017.38;;;3.55;90.16
73748;BME280;62056;52.130;5.428;2022-12-07T08:27:53;102024.22;;;3.62;89.66
73748;BME280;62056;52.130;5.428;2022-12-07T08:30:21;102021.56;;;3.69;90.38
73748;BME280;62056;52.130;5.428;2022-12-07T08:32:48;102022.91;;;3.78;91.15
73748;BME280;62056;52.130;5.428;2022-12-07T08:35:15;102022.06;;;3.84;90.23
73748;BME280;62056;52.130;5.428;2022-12-07T08:37:42;102008.66;;;3.93;90.85
73748;BME280;62056;52.130;5.428;2022-12-07T08:40:11;102010.00;;;4.02;89.95
73748;BME280;62056;52.130;5.428;2022-12-07T08:42:42;102016.66;;;4.11;91.48
73748;BME280;62056;52.130;5.428;2022-12-07T08:45:12;102014.53;;;4.20;90.18
73748;BME280;62056;52.130;5.428;2022-12-07T08:47:42;102016.31;;;4.26;89.08
73748;BME280;62056;52.130;5.428;2022-12-07T08:50:11;102015.84;;;4.36;90.07
73748;BME280;62056;52.130;5.428;2022-12-07T08:52:40;102015.78;;;4.42;90.53
73748;BME280;62056;52.130;5.428;2022-12-07T08:55:10;102007.81;;;4.49;90.15
73748;BME280;62056;52.130;5.428;2022-12-07T08:57:39;102011.44;;;4.55;90.49
73748;BME280;62056;52.130;5.428;2022-12-07T09:00:10;102008.13;;;4.59;91.04
73748;BME280;62056;52.130;5.428;2022-12-07T09:02:38;102006.69;;;4.63;91.27
73748;BME280;62056;52.130;5.428;2022-12-07T09:05:06;102006.22;;;4.66;91.10
73748;BME280;62056;52.130;5.428;2022-12-07T09:07:41;102009.44;;;4.69;90.95
73748;BME280;62056;52.130;5.428;2022-12-07T09:10:09;102006.81;;;4.69;89.56
73748;BME280;62056;52.130;5.428;2022-12-07T09:12:36;102011.47;;;4.73;89.75
73748;BME280;62056;52.130;5.428;2022-12-07T09:15:03;102007.78;;;4.74;89.42
73748;BME280;62056;52.130;5.428;2022-12-07T09:17:32;102003.91;;;4.77;88.07
73748;BME280;62056;52.130;5.428;2022-12-07T09:20:10;102007.50;;;4.82;89.38
73748;BME280;62056;52.130;5.428;2022-12-07T09:22:37;102006.03;;;4.86;89.32
73748;BME280;62056;52.130;5.428;2022-12-07T09:25:04;102015.91;;;4.91;89.87
73748;BME280;62056;52.130;5.428;2022-12-07T09:27:31;102015.72;;;4.93;90.20
73748;BME280;62056;52.130;5.428;2022-12-07T09:29:58;102017.25;;;5.00;90.67
73748;BME280;62056;52.130;5.428;2022-12-07T09:32:27;102019.81;;;5.07;90.63
73748;BME280;62056;52.130;5.428;2022-12-07T09:34:54;102021.56;;;5.13;90.33
73748;BME280;62056;52.130;5.428;2022-12-07T09:37:28;102018.63;;;5.21;90.02
73748;BME280;62056;52.130;5.428;2022-12-07T09:39:55;102015.91;;;5.28;90.14
73748;BME280;62056;52.130;5.428;2022-12-07T09:42:33;102015.47;;;5.31;89.37
73748;BME280;62056;52.130;5.428;2022-12-07T09:45:15;102005.06;;;5.36;88.93
73748;BME280;62056;52.130;5.428;2022-12-07T09:47:42;102007.03;;;5.41;89.44
73748;BME280;62056;52.130;5.428;2022-12-07T09:50:15;102002.91;;;5.45;89.08
73748;BME280;62056;52.130;5.428;2022-12-07T09:52:44;102005.72;;;5.50;88.81
73748;BME280;62056;52.130;5.428;2022-12-07T09:55:14;102003.19;;;5.55;89.11
73748;BME280;62056;52.130;5.428;2022-12-07T09:57:41;102007.22;;;5.58;88.82
73748;BME280;62056;52.130;5.428;2022-12-07T10:00:17;101997.03;;;5.61;89.08
73748;BME280;62056;52.130;5.428;2022-12-07T10:02:47;102002.88;;;5.63;89.47
73748;BME280;62056;52.130;5.428;2022-12-07T10:05:19;101999.19;;;5.64;87.97
73748;BME280;62056;52.130;5.428;2022-12-07T10:07:50;101991.44;;;5.70;88.29
73748;BME280;62056;52.130;5.428;2022-12-07T10:10:26;101990.38;;;5.71;87.49
73748;BME280;62056;52.130;5.428;2022-12-07T10:13:13;101997.72;;;5.68;87.69
73748;BME280;62056;52.130;5.428;2022-12-07T10:20:45;101983.63;;;5.75;87.70
73748;BME280;62056;52.130;5.428;2022-12-07T10:23:17;101989.63;;;5.82;87.88
73748;BME280;62056;52.130;5.428;2022-12-07T10:25:44;101971.72;;;5.84;87.22
73748;BME280;62056;52.130;5.428;2022-12-07T10:28:14;101969.56;;;5.93;88.29
73748;BME280;62056;52.130;5.428;2022-12-07T10:33:38;101963.66;;;6.09;87.39
73748;BME280;62056;52.130;5.428;2022-12-07T10:36:18;101960.78;;;6.11;87.17
73748;BME280;62056;52.130;5.428;2022-12-07T10:38:50;101967.09;;;6.10;87.33
73748;BME280;62056;52.130;5.428;2022-12-07T10:41:27;101968.94;;;6.09;87.21
73748;BME280;62056;52.130;5.428;2022-12-07T10:43:57;101968.34;;;6.07;86.91
73748;BME280;62056;52.130;5.428;2022-12-07T10:46:45;101960.22;;;6.08;85.91
73748;BME280;62056;52.130;5.428;2022-12-07T10:52:09;101947.13;;;6.14;86.65
73748;BME280;62056;52.130;5.428;2022-12-07T11:00:09;101946.78;;;6.22;86.05
73748;BME280;62056;52.130;5.428;2022-12-07T11:03:12;101944.13;;;6.22;85.67
73748;BME280;62056;52.130;5.428;2022-12-07T11:05:53;101938.38;;;6.25;86.26
73748;BME280;62056;52.130;5.428;2022-12-07T11:08:44;101946.22;;;6.32;86.49
73748;BME280;62056;52.130;5.428;2022-12-07T11:11:32;101949.16;;;6.35;85.38
73748;BME280;62056;52.130;5.428;2022-12-07T11:14:13;101943.78;;;6.42;85.99
73748;BME280;62056;52.130;5.428;2022-12-07T11:19:34;101934.47;;;6.63;85.89
73748;BME280;62056;52.130;5.428;2022-12-07T11:22:14;101929.41;;;6.61;83.59
73748;BME280;62056;52.130;5.428;2022-12-07T11:27:34;101925.25;;;6.65;83.74
73748;BME280;62056;52.130;5.428;2022-12-07T11:41:22;101919.66;;;6.50;84.42
73748;BME280;62056;52.130;5.428;2022-12-07T11:44:11;101907.94;;;6.46;83.21
73748;BME280;62056;52.130;5.428;2022-12-07T11:46:50;101905.53;;;6.44;83.30
73748;BME280;62056;52.130;5.428;2022-12-07T11:51:49;101898.16;;;6.46;84.21
73748;BME280;62056;52.130;5.428;2022-12-07T11:54:27;101900.59;;;6.48;83.51
73748;BME280;62056;52.130;5.428;2022-12-07T11:56:56;101902.75;;;6.51;83.73
73748;BME280;62056;52.130;5.428;2022-12-07T11:59:31;101901.25;;;6.55;84.34
73748;BME280;62056;52.130;5.428;2022-12-07T12:02:12;101902.03;;;6.56;83.56
73748;BME280;62056;52.130;5.428;2022-12-07T12:04:52;101903.66;;;6.57;83.29
73748;BME280;62056;52.130;5.428;2022-12-07T12:07:24;101891.59;;;6.61;84.30
73748;BME280;62056;52.130;5.428;2022-12-07T12:10:25;101892.63;;;6.60;83.37
73748;BME280;62056;52.130;5.428;2022-12-07T12:16:06;101876.63;;;6.66;84.15
73748;BME280;62056;52.130;5.428;2022-12-07T12:21:20;101872.72;;;6.69;83.55
73748;BME280;62056;52.130;5.428;2022-12-07T12:24:15;101875.69;;;6.73;82.59
73748;BME280;62056;52.130;5.428;2022-12-07T12:27:01;101877.09;;;6.75;82.73
73748;BME280;62056;52.130;5.428;2022-12-07T12:29:35;101877.16;;;6.80;82.39
73748;BME280;62056;52.130;5.428;2022-12-07T12:32:13;101873.81;;;6.85;81.83
73748;BME280;62056;52.130;5.428;2022-12-07T12:37:47;101859.19;;;6.94;81.79
73748;BME280;62056;52.130;5.428;2022-12-07T12:42:54;101857.19;;;7.01;80.85
73748;BME280;62056;52.130;5.428;2022-12-07T12:45:30;101854.97;;;7.10;81.57
73748;BME280;62056;52.130;5.428;2022-12-07T12:48:00;101837.34;;;7.16;81.33
73748;BME280;62056;52.130;5.428;2022-12-07T12:50:37;101834.53;;;7.22;80.56
73748;BME280;62056;52.130;5.428;2022-12-07T12:55:58;101853.34;;;7.38;79.38
73748;BME280;62056;52.130;5.428;2022-12-07T12:58:36;101840.97;;;7.43;79.35
73748;BME280;62056;52.130;5.428;2022-12-07T13:04:23;101852.44;;;7.49;78.16
73748;BME280;62056;52.130;5.428;2022-12-07T13:06:56;101848.75;;;7.33;77.86
73748;BME280;62056;52.130;5.428;2022-12-07T13:09:26;101845.78;;;7.13;77.39
73748;BME280;62056;52.130;5.428;2022-12-07T13:12:02;101839.47;;;7.02;78.57
73748;BME280;62056;52.130;5.428;2022-12-07T13:17:14;101832.31;;;6.85;79.59
73748;BME280;62056;52.130;5.428;2022-12-07T13:20:07;101827.66;;;6.76;79.84
73748;BME280;62056;52.130;5.428;2022-12-07T13:22:44;101823.53;;;6.68;80.23
73748;BME280;62056;52.130;5.428;2022-12-07T13:25:37;101812.03;;;6.62;79.82
73748;BME280;62056;52.130;5.428;2022-12-07T13:28:14;101823.47;;;6.51;79.58
73748;BME280;62056;52.130;5.428;2022-12-07T13:30:46;101817.63;;;6.49;80.32
73748;BME280;62056;52.130;5.428;2022-12-07T13:33:14;101807.97;;;6.43;80.08
73748;BME280;62056;52.130;5.428;2022-12-07T13:35:45;101805.00;;;6.39;80.30
73748;BME280;62056;52.130;5.428;2022-12-07T13:38:25;101802.84;;;6.36;80.19
73748;BME280;62056;52.130;5.428;2022-12-07T13:41:12;101798.56;;;6.35;80.21
73748;BME280;62056;52.130;5.428;2022-12-07T13:43:45;101798.25;;;6.32;80.06
73748;BME280;62056;52.130;5.428;2022-12-07T13:46:13;101796.41;;;6.32;80.21
73748;BME280;62056;52.130;5.428;2022-12-07T13:48:47;101793.78;;;6.32;80.93
73748;BME280;62056;52.130;5.428;2022-12-07T13:51:26;101792.28;;;6.36;80.58
73748;BME280;62056;52.130;5.428;2022-12-07T13:54:10;101795.69;;;6.37;80.29
73748;BME280;62056;52.130;5.428;2022-12-07T13:56:37;101795.69;;;6.37;80.72
73748;BME280;62056;52.130;5.428;2022-12-07T13:59:14;101786.75;;;6.38;80.14
73748;BME280;62056;52.130;5.428;2022-12-07T14:01:47;101786.06;;;6.42;80.86
73748;BME280;62056;52.130;5.428;2022-12-07T14:04:36;101781.09;;;6.46;81.22
73748;BME280;62056;52.130;5.428;2022-12-07T14:07:27;101781.09;;;6.46;79.12
73748;BME280;62056;52.130;5.428;2022-12-07T14:12:22;101777.75;;;6.51;79.22
73748;BME280;62056;52.130;5.428;2022-12-07T14:14:50;101780.47;;;6.56;80.08
73748;BME280;62056;52.130;5.428;2022-12-07T14:17:19;101774.63;;;6.54;78.75
73748;BME280;62056;52.130;5.428;2022-12-07T14:22:36;101770.59;;;6.63;79.87
73748;BME280;62056;52.130;5.428;2022-12-07T14:25:24;101768.25;;;6.66;80.07
73748;BME280;62056;52.130;5.428;2022-12-07T14:27:57;101763.53;;;6.68;79.92
73748;BME280;62056;52.130;5.428;2022-12-07T14:30:31;101750.56;;;6.67;79.57
73748;BME280;62056;52.130;5.428;2022-12-07T14:33:01;101760.41;;;6.72;79.59
73748;BME280;62056;52.130;5.428;2022-12-07T14:35:29;101759.94;;;6.75;79.52
73748;BME280;62056;52.130;5.428;2022-12-07T14:37:57;101758.69;;;6.77;79.70
73748;BME280;62056;52.130;5.428;2022-12-07T14:40:27;101755.78;;;6.79;80.05
73748;BME280;62056;52.130;5.428;2022-12-07T14:43:00;101758.13;;;6.75;79.78
73748;BME280;62056;52.130;5.428;2022-12-07T14:45:28;101754.91;;;6.73;79.99